sensor_id;sensor_type;location;lat;lon;timestamp;pressure;altitude;pressure_sealevel;temperature;humidity
69957;BME280;57283;54.816;9.482;2022-10-31T00:01:25;101424.75;;;12.57;100.00
69957;BME280;57283;54.816;9.482;2022-10-31T00:03:54;101424.53;;;12.67;100.00
69957;BME280;57283;54.816;9.482;2022-10-31T00:06:23;101426.41;;;12.62;100.00
69957;BME280;57283;54.816;9.482;2022-10-31T00:08:53;101433.38;;;12.63;100.00
69957;BME280;57283;54.816;9.482;2022-10-31T00:11:21;101433.53;;;12.56;100.00
69957;BME280;57283;54.816;9.482;2022-10-31T00:13:49;101441.34;;;12.58;100.00
69957;BME280;57283;54.816;9.482;2022-10-31T00:16:18;101430.94;;;12.55;100.00
69957;BME280;57283;54.816;9.482;2022-10-31T00:18:48;101435.47;;;12.48;100.00
69957;BME280;57283;54.816;9.482;2022-10-31T00:21:18;101447.59;;;12.52;100.00
69957;BME280;57283;54.816;9.482;2022-10-31T00:23:46;101445.03;;;12.51;100.00
69957;BME280;57283;54.816;9.482;2022-10-31T00:26:14;101452.00;;;12.50;100.00
69957;BME280;57283;54.816;9.482;2022-10-31T00:28:42;101456.38;;;12.51;100.00
69957;BME280;57283;54.816;9.482;2022-10-31T00:31:11;101454.63;;;12.50;100.00
69957;BME280;57283;54.816;9.482;2022-10-31T00:33:40;101420.22;;;12.27;100.00
69957;BME280;57283;54.816;9.482;2022-10-31T00:36:11;101446.88;;;12.46;100.00
69957;BME280;57283;54.816;9.482;2022-10-31T00:38:40;101447.97;;;12.37;100.00
69957;BME280;57283;54.816;9.482;2022-10-31T00:41:09;101453.94;;;12.42;100.00
69957;BME280;57283;54.816;9.482;2022-10-31T00:43:36;101467.81;;;12.47;100.00
69957;BME280;57283;54.816;9.482;2022-10-31T00:46:04;101472.88;;;12.55;100.00
69957;BME280;57283;54.816;9.482;2022-10-31T00:48:32;101472.69;;;12.63;100.00
69957;BME280;57283;54.816;9.482;2022-10-31T00:51:00;101473.44;;;12.68;100.00
69957;BME280;57283;54.816;9.482;2022-10-31T00:53:27;101475.00;;;12.75;100.00
69957;BME280;57283;54.816;9.482;2022-10-31T00:55:57;101457.53;;;12.75;100.00
69957;BME280;57283;54.816;9.482;2022-10-31T00:58:24;101465.19;;;12.84;100.00
69957;BME280;57283;54.816;9.482;2022-10-31T01:00:52;101467.69;;;12.89;100.00
69957;BME280;57283;54.816;9.482;2022-10-31T01:03:23;101472.84;;;12.92;100.00
69957;BME280;57283;54.816;9.482;2022-10-31T01:05:58;101462.44;;;12.89;100.00
69957;BME280;57283;54.816;9.482;2022-10-31T01:08:27;101476.16;;;13.00;100.00
69957;BME280;57283;54.816;9.482;2022-10-31T01:11:02;101485.56;;;13.07;100.00
69957;BME280;57283;54.816;9.482;2022-10-31T01:13:30;101482.91;;;13.09;100.00
69957;BME280;57283;54.816;9.482;2022-10-31T01:15:59;101484.59;;;13.11;100.00
69957;BME280;57283;54.816;9.482;2022-10-31T01:18:27;101468.84;;;13.11;100.00
69957;BME280;57283;54.816;9.482;2022-10-31T01:21:00;101489.59;;;13.23;100.00
69957;BME280;57283;54.816;9.482;2022-10-31T01:23:28;101475.53;;;13.24;100.00
69957;BME280;57283;54.816;9.482;2022-10-31T01:26:06;101475.38;;;13.31;100.00
69957;BME280;57283;54.816;9.482;2022-10-31T01:28:35;101478.91;;;13.30;100.00
69957;BME280;57283;54.816;9.482;2022-10-31T01:31:05;101482.25;;;13.36;100.00
69957;BME280;57283;54.816;9.482;2022-10-31T01:33:33;101479.69;;;13.33;100.00
69957;BME280;57283;54.816;9.482;2022-10-31T01:36:01;101460.91;;;13.16;100.00
69957;BME280;57283;54.816;9.482;2022-10-31T01:38:37;101440.72;;;13.19;100.00
69957;BME280;57283;54.816;9.482;2022-10-31T01:41:07;101447.47;;;13.28;100.00
69957;BME280;57283;54.816;9.482;2022-10-31T01:43:44;101481.88;;;13.50;100.00
69957;BME280;57283;54.816;9.482;2022-10-31T01:46:13;101483.63;;;13.49;100.00
69957;BME280;57283;54.816;9.482;2022-10-31T01:48:41;101495.63;;;13.58;100.00
69957;BME280;57283;54.816;9.482;2022-10-31T01:51:11;101495.44;;;13.66;100.00
69957;BME280;57283;54.816;9.482;2022-10-31T01:53:42;101497.88;;;13.73;100.00
69957;BME280;57283;54.816;9.482;2022-10-31T01:56:12;101496.78;;;13.80;100.00
69957;BME280;57283;54.816;9.482;2022-10-31T01:58:41;101507.09;;;13.88;100.00
69957;BME280;57283;54.816;9.482;2022-10-31T02:01:09;101488.94;;;13.79;100.00
69957;BME280;57283;54.816;9.482;2022-10-31T02:03:37;101501.78;;;13.89;100.00
69957;BME280;57283;54.816;9.482;2022-10-31T02:06:10;101504.53;;;13.85;100.00
69957;BME280;57283;54.816;9.482;2022-10-31T02:08:42;101495.91;;;13.80;100.00
69957;BME280;57283;54.816;9.482;2022-10-31T02:11:12;101504.94;;;13.71;100.00
69957;BME280;57283;54.816;9.482;2022-10-31T02:13:40;101511.16;;;13.67;100.00
69957;BME280;57283;54.816;9.482;2022-10-31T02:16:09;101508.56;;;13.66;100.00
69957;BME280;57283;54.816;9.482;2022-10-31T02:18:37;101519.22;;;13.59;100.00
69957;BME280;57283;54.816;9.482;2022-10-31T02:21:11;101516.84;;;13.50;100.00
69957;BME280;57283;54.816;9.482;2022-10-31T02:24:12;101485.13;;;13.25;100.00
69957;BME280;57283;54.816;9.482;2022-10-31T02:27:02;101517.22;;;13.37;100.00
69957;BME280;57283;54.816;9.482;2022-10-31T02:30:04;101513.97;;;13.27;100.00
69957;BME280;57283;54.816;9.482;2022-10-31T02:32:43;101402.31;;;12.47;100.00
69957;BME280;57283;54.816;9.482;2022-10-31T02:38:14;101524.97;;;13.06;100.00
69957;BME280;57283;54.816;9.482;2022-10-31T02:40:51;101530.31;;;13.01;100.00
69957;BME280;57283;54.816;9.482;2022-10-31T02:43:25;101515.75;;;12.89;100.00
69957;BME280;57283;54.816;9.482;2022-10-31T02:45:58;101416.78;;;12.25;100.00
69957;BME280;57283;54.816;9.482;2022-10-31T02:48:30;101535.88;;;12.89;100.00
69957;BME280;57283;54.816;9.482;2022-10-31T02:51:00;101538.59;;;12.84;100.00
69957;BME280;57283;54.816;9.482;2022-10-31T02:53:32;101532.63;;;12.76;100.00
69957;BME280;57283;54.816;9.482;2022-10-31T02:56:03;101542.41;;;12.71;100.00
69957;BME280;57283;54.816;9.482;2022-10-31T02:58:36;101537.19;;;12.70;100.00
69957;BME280;57283;54.816;9.482;2022-10-31T03:01:28;101541.69;;;12.63;100.00
69957;BME280;57283;54.816;9.482;2022-10-31T03:04:16;101534.03;;;12.54;100.00
69957;BME280;57283;54.816;9.482;2022-10-31T03:06:52;101542.81;;;12.53;100.00
69957;BME280;57283;54.816;9.482;2022-10-31T03:09:27;101538.59;;;12.44;100.00
69957;BME280;57283;54.816;9.482;2022-10-31T03:12:05;101541.28;;;12.41;100.00
69957;BME280;57283;54.816;9.482;2022-10-31T03:14:40;101528.47;;;12.29;100.00
69957;BME280;57283;54.816;9.482;2022-10-31T03:17:13;101544.16;;;12.31;100.00
69957;BME280;57283;54.816;9.482;2022-10-31T03:19:48;101543.38;;;12.26;100.00
69957;BME280;57283;54.816;9.482;2022-10-31T03:22:20;101546.03;;;12.24;100.00
69957;BME280;57283;54.816;9.482;2022-10-31T03:24:50;101532.38;;;12.08;100.00
69957;BME280;57283;54.816;9.482;2022-10-31T03:27:22;101554.03;;;12.18;100.00
69957;BME280;57283;54.816;9.482;2022-10-31T03:29:52;101495.34;;;11.85;100.00
69957;BME280;57283;54.816;9.482;2022-10-31T03:32:25;101558.31;;;12.22;100.00
69957;BME280;57283;54.816;9.482;2022-10-31T03:34:59;101560.88;;;12.23;100.00
69957;BME280;57283;54.816;9.482;2022-10-31T03:37:30;101522.97;;;12.00;100.00
69957;BME280;57283;54.816;9.482;2022-10-31T03:40:01;101571.16;;;12.34;100.00
69957;BME280;57283;54.816;9.482;2022-10-31T03:42:31;101578.81;;;12.43;100.00
69957;BME280;57283;54.816;9.482;2022-10-31T03:45:03;101575.88;;;12.57;100.00
69957;BME280;57283;54.816;9.482;2022-10-31T03:47:32;101581.00;;;12.63;100.00
69957;BME280;57283;54.816;9.482;2022-10-31T03:50:03;101592.28;;;12.67;100.00
69957;BME280;57283;54.816;9.482;2022-10-31T03:52:35;101585.25;;;12.69;100.00
69957;BME280;57283;54.816;9.482;2022-10-31T03:55:07;101591.44;;;12.65;100.00
69957;BME280;57283;54.816;9.482;2022-10-31T03:57:39;101596.78;;;12.60;100.00
69957;BME280;57283;54.816;9.482;2022-10-31T04:00:12;101592.41;;;12.61;100.00
69957;BME280;57283;54.816;9.482;2022-10-31T04:02:43;101599.53;;;12.55;100.00
69957;BME280;57283;54.816;9.482;2022-10-31T04:05:15;101601.31;;;12.53;100.00
69957;BME280;57283;54.816;9.482;2022-10-31T04:07:47;101620.41;;;12.58;100.00
69957;BME280;57283;54.816;9.482;2022-10-31T04:10:17;101612.56;;;12.57;100.00
69957;BME280;57283;54.816;9.482;2022-10-31T04:12:50;101616.88;;;12.59;100.00
69957;BME280;57283;54.816;9.482;2022-10-31T04:15:20;101617.03;;;12.53;100.00
69957;BME280;57283;54.816;9.482;2022-10-31T04:17:52;101608.34;;;12.51;100.00
69957;BME280;57283;54.816;9.482;2022-10-31T04:20:31;101608.44;;;12.45;100.00
69957;BME280;57283;54.816;9.482;2022-10-31T04:22:59;101596.28;;;12.43;100.00
69957;BME280;57283;54.816;9.482;2022-10-31T04:25:27;101607.50;;;12.49;100.00
69957;BME280;57283;54.816;9.482;2022-10-31T04:27:55;101604.03;;;12.49;100.00
69957;BME280;57283;54.816;9.482;2022-10-31T04:30:23;101612.13;;;12.38;100.00
69957;BME280;57283;54.816;9.482;2022-10-31T04:32:51;101607.09;;;12.26;100.00
69957;BME280;57283;54.816;9.482;2022-10-31T04:35:18;101618.28;;;12.36;100.00
69957;BME280;57283;54.816;9.482;2022-10-31T04:37:47;101603.84;;;12.15;100.00
69957;BME280;57283;54.816;9.482;2022-10-31T04:40:15;101623.69;;;12.27;100.00
69957;BME280;57283;54.816;9.482;2022-10-31T04:42:43;101614.22;;;12.19;100.00
69957;BME280;57283;54.816;9.482;2022-10-31T04:45:11;101635.31;;;12.12;100.00
69957;BME280;57283;54.816;9.482;2022-10-31T04:47:45;101630.03;;;12.15;100.00
69957;BME280;57283;54.816;9.482;2022-10-31T04:50:13;101626.66;;;12.07;100.00
69957;BME280;57283;54.816;9.482;2022-10-31T04:52:42;101623.25;;;12.05;100.00
69957;BME280;57283;54.816;9.482;2022-10-31T04:55:12;101618.09;;;11.99;100.00
69957;BME280;57283;54.816;9.482;2022-10-31T04:57:40;101620.84;;;11.91;100.00
69957;BME280;57283;54.816;9.482;2022-10-31T05:00:09;101620.13;;;11.84;100.00
69957;BME280;57283;54.816;9.482;2022-10-31T05:02:43;101616.75;;;11.76;100.00
69957;BME280;57283;54.816;9.482;2022-10-31T05:05:11;101616.00;;;11.70;100.00
69957;BME280;57283;54.816;9.482;2022-10-31T05:07:39;101617.78;;;11.66;100.00
69957;BME280;57283;54.816;9.482;2022-10-31T05:10:08;101617.84;;;11.63;100.00
69957;BME280;57283;54.816;9.482;2022-10-31T05:12:45;101611.03;;;11.54;100.00
69957;BME280;57283;54.816;9.482;2022-10-31T05:15:13;101610.91;;;11.59;100.00
69957;BME280;57283;54.816;9.482;2022-10-31T05:17:41;101591.09;;;11.46;100.00
69957;BME280;57283;54.816;9.482;2022-10-31T05:20:09;101617.00;;;11.61;100.00
69957;BME280;57283;54.816;9.482;2022-10-31T05:22:41;101616.03;;;11.67;100.00
69957;BME280;57283;54.816;9.482;2022-10-31T05:25:10;101625.50;;;11.74;100.00
69957;BME280;57283;54.816;9.482;2022-10-31T05:27:40;101628.97;;;11.77;100.00
69957;BME280;57283;54.816;9.482;2022-10-31T05:30:09;101633.28;;;11.80;100.00
69957;BME280;57283;54.816;9.482;2022-10-31T05:32:38;101634.97;;;11.84;100.00
69957;BME280;57283;54.816;9.482;2022-10-31T05:35:06;101632.31;;;11.85;100.00
69957;BME280;57283;54.816;9.482;2022-10-31T05:37:35;101618.59;;;11.71;100.00
69957;BME280;57283;54.816;9.482;2022-10-31T05:40:04;101615.97;;;11.71;100.00
69957;BME280;57283;54.816;9.482;2022-10-31T05:42:34;101628.09;;;11.77;100.00
69957;BME280;57283;54.816;9.482;2022-10-31T05:45:04;101635.88;;;11.81;100.00
69957;BME280;57283;54.816;9.482;2022-10-31T05:47:32;101627.22;;;11.76;100.00
69957;BME280;57283;54.816;9.482;2022-10-31T05:49:59;101633.31;;;11.78;100.00
69957;BME280;57283;54.816;9.482;2022-10-31T05:52:27;101635.94;;;11.75;100.00
69957;BME280;57283;54.816;9.482;2022-10-31T05:54:55;101627.47;;;11.61;100.00
69957;BME280;57283;54.816;9.482;2022-10-31T05:57:23;101629.31;;;11.56;100.00
69957;BME280;57283;54.816;9.482;2022-10-31T05:59:50;101645.06;;;11.53;100.00
69957;BME280;57283;54.816;9.482;2022-10-31T06:02:22;101644.28;;;11.46;100.00
69957;BME280;57283;54.816;9.482;2022-10-31T06:04:49;101648.81;;;11.37;100.00
69957;BME280;57283;54.816;9.482;2022-10-31T06:07:17;101645.38;;;11.32;100.00
69957;BME280;57283;54.816;9.482;2022-10-31T06:09:45;101635.97;;;11.22;100.00
69957;BME280;57283;54.816;9.482;2022-10-31T06:12:13;101639.53;;;11.14;100.00
69957;BME280;57283;54.816;9.482;2022-10-31T06:14:40;101644.94;;;11.04;100.00
69957;BME280;57283;54.816;9.482;2022-10-31T06:17:08;101652.84;;;10.99;100.00
69957;BME280;57283;54.816;9.482;2022-10-31T06:19:37;101653.78;;;10.94;100.00
69957;BME280;57283;54.816;9.482;2022-10-31T06:22:05;101652.19;;;10.83;100.00
69957;BME280;57283;54.816;9.482;2022-10-31T06:24:33;101651.25;;;10.89;100.00
69957;BME280;57283;54.816;9.482;2022-10-31T06:27:01;101658.16;;;10.90;100.00
69957;BME280;57283;54.816;9.482;2022-10-31T06:29:28;101657.22;;;10.97;100.00
69957;BME280;57283;54.816;9.482;2022-10-31T06:31:56;101672.00;;;10.98;100.00
69957;BME280;57283;54.816;9.482;2022-10-31T06:34:24;101670.25;;;11.00;100.00
69957;BME280;57283;54.816;9.482;2022-10-31T06:36:53;101671.97;;;11.01;100.00
69957;BME280;57283;54.816;9.482;2022-10-31T06:39:21;101678.91;;;11.05;100.00
69957;BME280;57283;54.816;9.482;2022-10-31T06:41:48;101684.06;;;11.08;100.00
69957;BME280;57283;54.816;9.482;2022-10-31T06:44:16;101676.22;;;11.08;100.00
69957;BME280;57283;54.816;9.482;2022-10-31T06:46:46;101685.69;;;11.18;100.00
69957;BME280;57283;54.816;9.482;2022-10-31T06:49:14;101689.16;;;11.21;100.00
69957;BME280;57283;54.816;9.482;2022-10-31T06:51:42;101702.97;;;11.29;100.00
69957;BME280;57283;54.816;9.482;2022-10-31T06:54:11;101684.75;;;11.23;100.00
69957;BME280;57283;54.816;9.482;2022-10-31T06:56:39;101698.53;;;11.34;100.00
69957;BME280;57283;54.816;9.482;2022-10-31T06:59:06;101678.50;;;11.31;100.00
69957;BME280;57283;54.816;9.482;2022-10-31T07:01:34;101666.38;;;11.26;100.00
69957;BME280;57283;54.816;9.482;2022-10-31T07:04:02;101680.22;;;11.34;100.00
69957;BME280;57283;54.816;9.482;2022-10-31T07:06:30;101698.38;;;11.44;100.00
69957;BME280;57283;54.816;9.482;2022-10-31T07:08:58;101685.25;;;11.46;100.00
69957;BME280;57283;54.816;9.482;2022-10-31T07:11:27;101677.38;;;11.49;100.00
69957;BME280;57283;54.816;9.482;2022-10-31T07:13:55;101706.69;;;11.72;100.00
69957;BME280;57283;54.816;9.482;2022-10-31T07:16:23;101706.47;;;11.86;100.00
69957;BME280;57283;54.816;9.482;2022-10-31T07:18:52;101716.84;;;11.91;100.00
69957;BME280;57283;54.816;9.482;2022-10-31T07:21:20;101714.97;;;12.00;100.00
69957;BME280;57283;54.816;9.482;2022-10-31T07:23:48;101687.25;;;11.88;100.00
69957;BME280;57283;54.816;9.482;2022-10-31T07:26:16;101680.34;;;11.83;100.00
69957;BME280;57283;54.816;9.482;2022-10-31T07:28:45;101656.03;;;11.76;100.00
69957;BME280;57283;54.816;9.482;2022-10-31T07:31:13;101725.09;;;12.20;100.00
69957;BME280;57283;54.816;9.482;2022-10-31T07:33:40;101724.94;;;12.28;100.00
69957;BME280;57283;54.816;9.482;2022-10-31T07:36:08;101704.84;;;12.28;100.00
69957;BME280;57283;54.816;9.482;2022-10-31T07:38:36;101721.97;;;12.47;100.00
69957;BME280;57283;54.816;9.482;2022-10-31T07:41:04;101733.88;;;12.64;100.00
69957;BME280;57283;54.816;9.482;2022-10-31T07:43:32;101711.22;;;12.59;100.00
69957;BME280;57283;54.816;9.482;2022-10-31T07:46:01;101721.13;;;12.90;100.00
69957;BME280;57283;54.816;9.482;2022-10-31T07:48:29;101709.34;;;13.09;100.00
69957;BME280;57283;54.816;9.482;2022-10-31T07:50:57;101606.13;;;12.73;100.00
69957;BME280;57283;54.816;9.482;2022-10-31T07:53:24;101693.16;;;13.31;100.00
69957;BME280;57283;54.816;9.482;2022-10-31T07:55:52;101719.88;;;13.48;100.00
69957;BME280;57283;54.816;9.482;2022-10-31T07:58:20;101706.97;;;13.39;100.00
69957;BME280;57283;54.816;9.482;2022-10-31T08:00:47;101704.53;;;13.68;100.00
69957;BME280;57283;54.816;9.482;2022-10-31T08:03:18;101685.84;;;13.80;100.00
69957;BME280;57283;54.816;9.482;2022-10-31T08:05:46;101709.63;;;14.08;100.00
69957;BME280;57283;54.816;9.482;2022-10-31T08:08:14;101711.16;;;14.17;100.00
69957;BME280;57283;54.816;9.482;2022-10-31T08:10:43;101704.13;;;14.19;100.00
69957;BME280;57283;54.816;9.482;2022-10-31T08:13:12;101686.84;;;14.09;100.00
69957;BME280;57283;54.816;9.482;2022-10-31T08:15:40;101716.09;;;14.29;100.00
69957;BME280;57283;54.816;9.482;2022-10-31T08:18:11;101670.94;;;14.15;100.00
69957;BME280;57283;54.816;9.482;2022-10-31T08:20:41;101703.88;;;14.60;100.00
69957;BME280;57283;54.816;9.482;2022-10-31T08:23:10;101710.84;;;14.61;100.00
69957;BME280;57283;54.816;9.482;2022-10-31T08:25:39;101714.63;;;14.84;100.00
69957;BME280;57283;54.816;9.482;2022-10-31T08:28:09;101718.47;;;14.40;100.00
69957;BME280;57283;54.816;9.482;2022-10-31T08:30:38;101715.50;;;14.19;100.00
69957;BME280;57283;54.816;9.482;2022-10-31T08:33:09;101725.59;;;14.01;100.00
69957;BME280;57283;54.816;9.482;2022-10-31T08:35:37;101705.19;;;13.76;100.00
69957;BME280;57283;54.816;9.482;2022-10-31T08:38:08;101708.94;;;13.66;100.00
69957;BME280;57283;54.816;9.482;2022-10-31T08:40:36;101717.22;;;13.86;100.00
69957;BME280;57283;54.816;9.482;2022-10-31T08:43:05;101714.63;;;14.19;100.00
69957;BME280;57283;54.816;9.482;2022-10-31T08:45:33;101690.16;;;14.17;100.00
69957;BME280;57283;54.816;9.482;2022-10-31T08:48:03;101692.00;;;14.77;100.00
69957;BME280;57283;54.816;9.482;2022-10-31T08:50:33;101677.16;;;15.61;100.00
69957;BME280;57283;54.816;9.482;2022-10-31T08:53:02;101667.66;;;17.48;100.00
69957;BME280;57283;54.816;9.482;2022-10-31T08:55:34;101666.88;;;18.69;100.00
69957;BME280;57283;54.816;9.482;2022-10-31T08:58:02;101636.03;;;19.95;100.00
69957;BME280;57283;54.816;9.482;2022-10-31T09:00:30;101656.53;;;21.39;100.00
69957;BME280;57283;54.816;9.482;2022-10-31T09:03:02;101673.78;;;20.68;100.00
69957;BME280;57283;54.816;9.482;2022-10-31T09:05:30;101668.28;;;20.55;100.00
69957;BME280;57283;54.816;9.482;2022-10-31T09:08:01;101667.53;;;19.67;100.00
69957;BME280;57283;54.816;9.482;2022-10-31T09:10:31;101648.13;;;21.31;100.00
69957;BME280;57283;54.816;9.482;2022-10-31T09:13:02;101648.66;;;21.22;100.00
69957;BME280;57283;54.816;9.482;2022-10-31T09:15:33;101656.44;;;22.45;100.00
69957;BME280;57283;54.816;9.482;2022-10-31T09:18:02;101669.28;;;24.15;100.00
69957;BME280;57283;54.816;9.482;2022-10-31T09:20:31;101656.88;;;23.35;100.00
69957;BME280;57283;54.816;9.482;2022-10-31T09:23:02;101665.38;;;24.33;100.00
69957;BME280;57283;54.816;9.482;2022-10-31T09:25:30;101661.44;;;24.26;100.00
69957;BME280;57283;54.816;9.482;2022-10-31T09:28:02;101654.88;;;24.30;100.00
69957;BME280;57283;54.816;9.482;2022-10-31T09:30:33;101654.94;;;23.91;100.00
69957;BME280;57283;54.816;9.482;2022-10-31T09:33:03;101650.38;;;23.53;100.00
69957;BME280;57283;54.816;9.482;2022-10-31T09:35:32;101659.50;;;23.49;100.00
69957;BME280;57283;54.816;9.482;2022-10-31T09:38:01;101657.50;;;22.85;100.00
69957;BME280;57283;54.816;9.482;2022-10-31T09:40:32;101653.84;;;22.29;100.00
69957;BME280;57283;54.816;9.482;2022-10-31T09:43:09;101652.22;;;21.52;100.00
69957;BME280;57283;54.816;9.482;2022-10-31T09:45:47;101641.16;;;21.60;100.00
69957;BME280;57283;54.816;9.482;2022-10-31T09:48:36;101659.13;;;22.01;100.00
69957;BME280;57283;54.816;9.482;2022-10-31T09:51:08;101652.03;;;21.55;100.00
69957;BME280;57283;54.816;9.482;2022-10-31T09:53:39;101661.56;;;20.97;100.00
69957;BME280;57283;54.816;9.482;2022-10-31T09:56:13;101659.91;;;20.78;100.00
69957;BME280;57283;54.816;9.482;2022-10-31T09:58:45;101649.75;;;22.09;100.00
69957;BME280;57283;54.816;9.482;2022-10-31T10:01:22;101627.41;;;21.22;100.00
69957;BME280;57283;54.816;9.482;2022-10-31T10:03:58;101647.56;;;22.30;100.00
69957;BME280;57283;54.816;9.482;2022-10-31T10:06:33;101640.94;;;23.48;100.00
69957;BME280;57283;54.816;9.482;2022-10-31T10:09:01;101647.31;;;24.24;100.00
69957;BME280;57283;54.816;9.482;2022-10-31T10:11:42;101649.22;;;24.22;100.00
69957;BME280;57283;54.816;9.482;2022-10-31T10:14:29;101630.75;;;22.86;100.00
69957;BME280;57283;54.816;9.482;2022-10-31T10:17:12;101647.78;;;22.55;100.00
69957;BME280;57283;54.816;9.482;2022-10-31T10:20:02;101646.75;;;22.44;100.00
69957;BME280;57283;54.816;9.482;2022-10-31T10:22:38;101653.38;;;22.22;100.00
69957;BME280;57283;54.816;9.482;2022-10-31T10:25:15;101653.19;;;22.25;100.00
69957;BME280;57283;54.816;9.482;2022-10-31T10:27:49;101670.00;;;21.96;100.00
69957;BME280;57283;54.816;9.482;2022-10-31T10:30:22;101674.25;;;20.92;100.00
69957;BME280;57283;54.816;9.482;2022-10-31T10:32:52;101656.97;;;20.51;100.00
69957;BME280;57283;54.816;9.482;2022-10-31T10:35:27;101666.03;;;20.30;100.00
69957;BME280;57283;54.816;9.482;2022-10-31T10:38:00;101627.41;;;19.74;100.00
69957;BME280;57283;54.816;9.482;2022-10-31T10:40:29;101666.13;;;19.94;100.00
69957;BME280;57283;54.816;9.482;2022-10-31T10:43:08;101668.25;;;19.70;100.00
69957;BME280;57283;54.816;9.482;2022-10-31T10:49:00;101659.56;;;19.49;100.00
69957;BME280;57283;54.816;9.482;2022-10-31T10:51:38;101655.53;;;19.77;100.00
69957;BME280;57283;54.816;9.482;2022-10-31T10:54:41;101663.78;;;19.71;100.00
69957;BME280;57283;54.816;9.482;2022-10-31T10:57:22;101657.41;;;19.58;100.00
69957;BME280;57283;54.816;9.482;2022-10-31T10:59:50;101560.34;;;18.45;100.00
69957;BME280;57283;54.816;9.482;2022-10-31T11:02:22;101652.72;;;19.44;100.00
69957;BME280;57283;54.816;9.482;2022-10-31T11:04:52;101596.88;;;19.12;100.00
69957;BME280;57283;54.816;9.482;2022-10-31T11:07:20;101652.13;;;19.20;100.00
69957;BME280;57283;54.816;9.482;2022-10-31T11:09:48;101628.66;;;18.94;100.00
69957;BME280;57283;54.816;9.482;2022-10-31T11:12:20;101591.31;;;19.00;100.00
69957;BME280;57283;54.816;9.482;2022-10-31T11:14:51;101635.53;;;18.60;100.00
69957;BME280;57283;54.816;9.482;2022-10-31T11:17:30;101657.16;;;18.89;100.00
69957;BME280;57283;54.816;9.482;2022-10-31T11:20:05;101644.97;;;19.22;100.00
69957;BME280;57283;54.816;9.482;2022-10-31T11:22:33;101643.25;;;19.21;100.00
69957;BME280;57283;54.816;9.482;2022-10-31T11:25:19;101652.34;;;19.15;100.00
69957;BME280;57283;54.816;9.482;2022-10-31T11:27:58;101651.16;;;19.04;100.00
69957;BME280;57283;54.816;9.482;2022-10-31T11:30:26;101649.63;;;19.17;100.00
69957;BME280;57283;54.816;9.482;2022-10-31T11:32:55;101578.44;;;18.36;100.00
69957;BME280;57283;54.816;9.482;2022-10-31T11:35:25;101626.66;;;18.61;100.00
69957;BME280;57283;54.816;9.482;2022-10-31T11:37:54;101659.44;;;18.77;100.00
69957;BME280;57283;54.816;9.482;2022-10-31T11:40:26;101650.22;;;19.05;100.00
69957;BME280;57283;54.816;9.482;2022-10-31T11:42:56;101650.53;;;19.35;100.00
69957;BME280;57283;54.816;9.482;2022-10-31T11:45:30;101598.47;;;18.98;100.00
69957;BME280;57283;54.816;9.482;2022-10-31T11:48:02;101640.06;;;19.32;100.00
69957;BME280;57283;54.816;9.482;2022-10-31T11:50:42;101652.88;;;19.05;100.00
69957;BME280;57283;54.816;9.482;2022-10-31T11:53:17;101644.66;;;18.92;100.00
69957;BME280;57283;54.816;9.482;2022-10-31T11:55:46;101654.44;;;18.90;100.00
69957;BME280;57283;54.816;9.482;2022-10-31T11:58:22;101658.56;;;18.58;100.00
69957;BME280;57283;54.816;9.482;2022-10-31T12:00:52;101645.31;;;18.58;100.00
69957;BME280;57283;54.816;9.482;2022-10-31T12:03:33;101666.47;;;18.19;100.00
69957;BME280;57283;54.816;9.482;2022-10-31T12:06:10;101671.22;;;18.11;100.00
69957;BME280;57283;54.816;9.482;2022-10-31T12:08:40;101665.72;;;17.95;100.00
69957;BME280;57283;54.816;9.482;2022-10-31T12:11:16;101621.72;;;17.74;100.00
69957;BME280;57283;54.816;9.482;2022-10-31T12:13:57;101663.22;;;17.72;100.00
69957;BME280;57283;54.816;9.482;2022-10-31T12:16:35;101659.06;;;17.43;100.00
69957;BME280;57283;54.816;9.482;2022-10-31T12:19:12;101651.41;;;17.15;100.00
69957;BME280;57283;54.816;9.482;2022-10-31T12:21:59;101659.31;;;17.15;100.00
69957;BME280;57283;54.816;9.482;2022-10-31T12:24:45;101648.63;;;16.96;100.00
69957;BME280;57283;54.816;9.482;2022-10-31T12:27:25;101646.72;;;17.00;100.00
69957;BME280;57283;54.816;9.482;2022-10-31T12:30:12;101643.03;;;17.04;100.00
69957;BME280;57283;54.816;9.482;2022-10-31T12:32:57;101644.09;;;17.00;100.00
69957;BME280;57283;54.816;9.482;2022-10-31T12:35:44;101651.69;;;16.86;100.00
69957;BME280;57283;54.816;9.482;2022-10-31T12:38:37;101640.47;;;16.79;100.00
69957;BME280;57283;54.816;9.482;2022-10-31T12:41:20;101628.88;;;17.06;100.00
69957;BME280;57283;54.816;9.482;2022-10-31T12:43:56;101635.34;;;16.98;100.00
69957;BME280;57283;54.816;9.482;2022-10-31T12:46:32;101633.03;;;17.12;100.00
69957;BME280;57283;54.816;9.482;2022-10-31T12:49:26;101622.63;;;17.09;100.00
69957;BME280;57283;54.816;9.482;2022-10-31T12:52:11;101631.03;;;17.40;100.00
69957;BME280;57283;54.816;9.482;2022-10-31T12:54:54;101570.28;;;18.22;100.00
69957;BME280;57283;54.816;9.482;2022-10-31T12:57:29;101609.31;;;19.10;100.00
69957;BME280;57283;54.816;9.482;2022-10-31T13:00:02;101604.81;;;19.48;100.00
69957;BME280;57283;54.816;9.482;2022-10-31T13:02:35;101621.81;;;20.13;100.00
69957;BME280;57283;54.816;9.482;2022-10-31T13:05:13;101617.31;;;19.64;100.00
69957;BME280;57283;54.816;9.482;2022-10-31T13:07:48;101586.44;;;19.63;100.00
69957;BME280;57283;54.816;9.482;2022-10-31T13:10:20;101608.69;;;19.24;100.00